Time;durP1;ratioP1;P1;durP2;ratioP2;P2;SDS_P1;SDS_P2;PMS_P1;PMS_P2;Temp;Humidity;BMP_temperature;BMP_pressure;BME280_temperature;BME280_humidity;BME280_pressure;Samples;Min_cycle;Max_cycle;Signal;HPM_P1;HPM_P2
2021/01/19 00:02:09;;;;;;;6.03;3.28;;;2.10;42.80;;;;;;4987885;28;20033;-73
2021/01/19 00:04:34;;;;;;;3.45;2.88;;;2.10;38.10;;;;;;4980998;28;20035;-74
2021/01/19 00:07:00;;;;;;;3.05;2.28;;;2.10;27.10;;;;;;4984787;28;20049;-72
2021/01/19 00:09:25;;;;;;;6.40;5.18;;;2.00;40.90;;;;;;4988058;28;20084;-74
2021/01/19 00:11:51;;;;;;;4.72;2.78;;;2.00;50.40;;;;;;4993433;28;20030;-72
2021/01/19 00:14:17;;;;;;;5.90;3.03;;;2.00;53.00;;;;;;4987328;28;20105;-73
2021/01/19 00:16:42;;;;;;;6.47;2.97;;;2.00;45.50;;;;;;4993162;28;20030;-73
2021/01/19 00:19:08;;;;;;;6.07;2.70;;;1.90;49.50;;;;;;4983965;28;20059;-73
2021/01/19 00:21:34;;;;;;;5.47;2.90;;;2.00;36.30;;;;;;4985093;28;20061;-72
2021/01/19 00:23:59;;;;;;;5.97;2.58;;;2.00;44.80;;;;;;4986626;28;20037;-73
2021/01/19 00:26:25;;;;;;;3.10;2.78;;;1.90;44.40;;;;;;4989641;28;20030;-73
2021/01/19 00:28:51;;;;;;;3.25;2.50;;;2.00;41.50;;;;;;4979605;28;20085;-72
2021/01/19 00:31:16;;;;;;;6.53;2.25;;;1.90;55.70;;;;;;4987033;28;20038;-73
2021/01/19 00:33:42;;;;;;;3.20;2.35;;;1.90;50.10;;;;;;4981687;28;20040;-73
2021/01/19 00:36:08;;;;;;;5.75;2.90;;;1.90;44.20;;;;;;4984767;28;20023;-73
2021/01/19 00:38:33;;;;;;;6.28;3.22;;;2.00;43.80;;;;;;4986025;28;20097;-72
2021/01/19 00:40:59;;;;;;;3.42;2.45;;;1.90;38.20;;;;;;4993015;28;20082;-71
2021/01/19 00:43:24;;;;;;;5.25;2.75;;;1.90;38.30;;;;;;4994881;28;20395;-74
2021/01/19 00:45:50;;;;;;;3.10;2.33;;;2.00;34.50;;;;;;4988695;28;20407;-73
2021/01/19 00:48:15;;;;;;;5.25;2.60;;;1.90;31.80;;;;;;4988829;28;20030;-73
2021/01/19 00:50:41;;;;;;;3.90;2.95;;;1.90;35.00;;;;;;4984225;28;20031;-73
2021/01/19 00:53:06;;;;;;;3.60;2.58;;;1.90;30.00;;;;;;4994383;28;20403;-72
2021/01/19 00:55:32;;;;;;;3.95;2.70;;;2.00;23.00;;;;;;4992845;28;20026;-73
2021/01/19 00:57:57;;;;;;;3.63;2.33;;;1.90;35.70;;;;;;4994231;28;20114;-73
2021/01/19 01:00:23;;;;;;;3.53;2.08;;;1.90;25.90;;;;;;4990773;28;20026;-73
2021/01/19 01:02:49;;;;;;;2.72;2.45;;;1.90;24.40;;;;;;4998952;28;20022;-74
2021/01/19 01:05:15;;;;;;;4.47;2.30;;;1.90;29.20;;;;;;4998268;28;20497;-72
2021/01/19 01:07:42;;;;;;;6.78;3.22;;;1.90;36.90;;;;;;4986639;28;20026;-74
2021/01/19 01:10:10;;;;;;;6.07;2.65;;;1.80;29.30;;;;;;4988134;28;20467;-73
2021/01/19 01:12:36;;;;;;;4.07;2.58;;;1.80;48.70;;;;;;4995653;28;20394;-74
2021/01/19 01:15:04;;;;;;;4.30;2.30;;;1.80;41.50;;;;;;4985626;28;20033;-71
2021/01/19 01:17:34;;;;;;;6.57;2.80;;;1.70;55.60;;;;;;4993339;28;20102;-73
2021/01/19 01:20:00;;;;;;;6.60;2.95;;;1.80;44.00;;;;;;4997285;28;20113;-73
2021/01/19 01:22:25;;;;;;;3.13;2.50;;;1.70;46.70;;;;;;4986310;28;20070;-74
2021/01/19 01:24:51;;;;;;;2.67;2.05;;;1.70;59.60;;;;;;4984297;28;20441;-73
2021/01/19 01:27:17;;;;;;;7.00;3.40;;;1.70;60.50;;;;;;4991682;28;20035;-74
2021/01/19 01:29:42;;;;;;;4.32;2.78;;;1.70;53.10;;;;;;4990025;28;20414;-73
2021/01/19 01:32:08;;;;;;;3.03;2.33;;;1.70;55.80;;;;;;4992890;28;20478;-73
2021/01/19 01:34:33;;;;;;;5.30;2.60;;;1.70;54.70;;;;;;4984513;28;20031;-74
2021/01/19 01:36:59;;;;;;;9.48;2.83;;;1.70;63.60;;;;;;4985575;28;20086;-73
2021/01/19 01:39:24;;;;;;;4.75;2.53;;;1.60;60.50;;;;;;4994564;28;20497;-73
2021/01/19 01:41:50;;;;;;;3.30;2.80;;;1.70;56.20;;;;;;4983450;28;20041;-72
2021/01/19 01:44:16;;;;;;;3.38;2.83;;;1.70;60.70;;;;;;4989305;28;20041;-72
2021/01/19 01:46:43;;;;;;;3.40;2.58;;;1.60;61.30;;;;;;4996075;28;20034;-73
2021/01/19 01:49:09;;;;;;;3.42;2.53;;;1.60;52.90;;;;;;4992423;28;20033;-72
2021/01/19 01:51:35;;;;;;;3.10;2.30;;;1.70;43.30;;;;;;4993779;28;20109;-74
2021/01/19 01:54:02;;;;;;;4.72;2.55;;;1.70;39.80;;;;;;5002459;28;20497;-72
2021/01/19 01:56:28;;;;;;;3.92;2.72;;;1.70;31.80;;;;;;5000838;28;20034;-72
2021/01/19 01:58:54;;;;;;;3.25;2.20;;;1.60;42.90;;;;;;4999722;28;20027;-71
2021/01/19 02:01:20;;;;;;;4.05;2.60;;;1.60;49.90;;;;;;4992006;28;20061;-71
2021/01/19 02:03:46;;;;;;;3.10;2.42;;;1.50;56.20;;;;;;4986877;28;20046;-72
2021/01/19 02:06:16;;;;;;;3.88;2.50;;;1.60;44.80;;;;;;4996413;28;20505;-71
2021/01/19 02:09:19;;;;;;;4.45;2.63;;;1.60;45.50;;;;;;4986159;28;20120;-72
2021/01/19 02:12:00;;;;;;;2.97;2.28;;;1.50;44.80;;;;;;4926598;29;20031;-72
2021/01/19 02:14:35;;;;;;;3.47;2.53;;;1.50;51.40;;;;;;4945499;29;20028;-73
2021/01/19 02:17:32;;;;;;;6.40;2.40;;;1.50;58.70;;;;;;4988258;28;20097;-72
2021/01/19 02:20:35;;;;;;;4.68;2.55;;;1.40;59.20;;;;;;4994602;28;20030;-72
2021/01/19 02:23:19;;;;;;;4.50;2.67;;;1.50;61.00;;;;;;4988467;28;20415;-72
2021/01/19 02:26:14;;;;;;;3.05;2.80;;;1.50;68.50;;;;;;4986120;28;20050;-72
2021/01/19 02:28:52;;;;;;;4.05;2.22;;;1.50;62.60;;;;;;4985410;28;20034;-72
2021/01/19 02:31:42;;;;;;;2.30;1.98;;;1.40;69.80;;;;;;4985629;28;20041;-72
2021/01/19 02:34:19;;;;;;;3.55;2.63;;;1.40;91.90;;;;;;4980261;28;20042;-71
2021/01/19 02:36:55;;;;;;;2.90;2.30;;;1.40;90.50;;;;;;4984616;28;20038;-73
2021/01/19 02:39:29;;;;;;;2.70;2.33;;;1.40;86.10;;;;;;4983460;28;20126;-73
2021/01/19 02:41:56;;;;;;;3.83;2.40;;;1.40;94.50;;;;;;4986319;28;20031;-73
2021/01/19 02:44:25;;;;;;;4.90;2.60;;;1.30;90.30;;;;;;4988201;28;20018;-72
2021/01/19 02:46:59;;;;;;;4.47;2.63;;;1.30;82.40;;;;;;4991621;28;20045;-72
2021/01/19 02:49:25;;;;;;;4.75;2.80;;;1.40;83.90;;;;;;4984948;28;20027;-73
2021/01/19 02:51:53;;;;;;;6.55;3.72;;;1.40;89.40;;;;;;4981523;28;20045;-73
2021/01/19 02:54:19;;;;;;;3.55;2.60;;;1.40;90.00;;;;;;4992317;28;20236;-72
2021/01/19 02:57:03;;;;;;;2.97;2.28;;;1.40;84.60;;;;;;4983670;28;20023;-73
2021/01/19 03:00:03;;;;;;;3.35;2.17;;;1.40;90.20;;;;;;4983907;28;20030;-72
2021/01/19 03:02:33;;;;;;;4.30;2.55;;;1.40;93.50;;;;;;4990914;28;20015;-71
2021/01/19 03:05:01;;;;;;;3.35;2.47;;;1.50;90.90;;;;;;4987461;28;20038;-72
2021/01/19 03:07:28;;;;;;;7.32;3.20;;;1.50;89.60;;;;;;4991835;28;20030;-72
2021/01/19 03:09:56;;;;;;;7.82;2.58;;;1.60;78.60;;;;;;4990622;28;20078;-72
2021/01/19 03:12:22;;;;;;;3.83;2.67;;;1.60;64.40;;;;;;4993543;28;20022;-72
2021/01/19 03:14:48;;;;;;;2.55;2.17;;;1.70;56.40;;;;;;5002483;28;20035;-73
2021/01/19 03:17:14;;;;;;;3.80;2.33;;;1.70;54.00;;;;;;4997591;28;20030;-73
2021/01/19 03:19:41;;;;;;;3.22;2.25;;;1.80;48.10;;;;;;4988228;28;20041;-73
2021/01/19 03:22:08;;;;;;;3.45;2.88;;;1.70;37.70;;;;;;4987693;28;20097;-74
2021/01/19 03:24:33;;;;;;;5.88;2.85;;;1.80;32.40;;;;;;4988392;28;20506;-72
2021/01/19 03:26:59;;;;;;;3.38;2.30;;;1.90;10.90;;;;;;4992236;28;20062;-72
2021/01/19 03:29:25;;;;;;;3.47;2.00;;;1.90;1.00;;;;;;4990465;28;20105;-73
2021/01/19 03:31:51;;;;;;;4.20;1.90;;;2.00;1.00;;;;;;4993093;28;20030;-73
2021/01/19 03:34:16;;;;;;;7.43;2.20;;;2.00;1.00;;;;;;4987029;28;20026;-73
2021/01/19 03:36:42;;;;;;;6.90;3.00;;;2.00;1.00;;;;;;4987034;28;20042;-73
2021/01/19 03:39:08;;;;;;;4.57;2.25;;;2.00;1.00;;;;;;4989911;28;20023;-73
2021/01/19 03:41:33;;;;;;;3.08;2.15;;;2.10;1.00;;;;;;4995249;28;20041;-72
2021/01/19 03:43:59;;;;;;;3.33;2.08;;;2.10;1.00;;;;;;4992379;28;20077;-72
2021/01/19 03:46:25;;;;;;;3.17;2.05;;;2.10;1.00;;;;;;4993131;28;20027;-72
2021/01/19 03:48:52;;;;;;;3.63;2.03;;;2.10;1.00;;;;;;4985398;28;20398;-72
2021/01/19 03:51:18;;;;;;;2.35;1.98;;;2.10;1.00;;;;;;4994304;28;20030;-72
2021/01/19 03:53:44;;;;;;;2.50;1.80;;;2.10;1.00;;;;;;4983924;28;20022;-72
2021/01/19 03:56:09;;;;;;;3.03;2.10;;;2.10;1.00;;;;;;4995304;28;20401;-72
2021/01/19 03:58:35;;;;;;;5.13;2.40;;;2.10;1.00;;;;;;4988647;28;20026;-73
2021/01/19 04:01:00;;;;;;;2.55;2.00;;;2.10;1.00;;;;;;4995785;28;20022;-72
2021/01/19 04:03:26;;;;;;;3.30;2.20;;;2.10;1.00;;;;;;4984331;28;20044;-72
2021/01/19 04:05:51;;;;;;;2.75;1.73;;;2.10;1.00;;;;;;4990230;28;20475;-73
2021/01/19 04:08:17;;;;;;;3.88;2.05;;;2.10;1.00;;;;;;4976194;28;20031;-72
2021/01/19 04:10:48;;;;;;;3.13;2.03;;;2.10;1.00;;;;;;4985414;28;20026;-74
2021/01/19 04:13:17;;;;;;;;;;;2.20;1.00;;;;;;4980989;28;20027;-72
2021/01/19 04:15:43;;;;;;;4.88;2.35;;;2.10;1.00;;;;;;4985565;28;19953;-72
2021/01/19 04:18:08;;;;;;;3.92;1.95;;;2.10;1.00;;;;;;4986521;28;20187;-74
2021/01/19 04:20:34;;;;;;;3.78;2.10;;;2.00;1.00;;;;;;4985892;28;20106;-74
2021/01/19 04:23:00;;;;;;;4.85;1.90;;;2.00;1.00;;;;;;4987899;28;20118;-72
2021/01/19 04:25:25;;;;;;;6.18;3.90;;;1.90;1.00;;;;;;4986876;28;20101;-72
2021/01/19 04:27:51;;;;;;;2.95;2.08;;;1.90;1.00;;;;;;4993102;28;20394;-73
2021/01/19 04:30:18;;;;;;;4.97;3.70;;;1.80;1.00;;;;;;4987273;28;20031;-74
2021/01/19 04:32:45;;;;;;;2.55;1.80;;;1.70;1.00;;;;;;4979986;28;20030;-72
2021/01/19 04:35:11;;;;;;;4.13;2.80;;;1.70;1.00;;;;;;4989294;28;20034;-71
2021/01/19 04:37:36;;;;;;;4.75;2.10;;;1.60;1.00;;;;;;4989387;28;20367;-72
2021/01/19 04:40:04;;;;;;;3.97;2.67;;;1.60;1.00;;;;;;4986130;28;20061;-72
2021/01/19 04:42:33;;;;;;;5.95;2.33;;;1.60;1.00;;;;;;4994659;28;20522;-72
2021/01/19 04:45:00;;;;;;;6.32;2.00;;;1.60;1.00;;;;;;4993334;28;20397;-71
2021/01/19 04:47:27;;;;;;;4.63;2.72;;;1.60;1.00;;;;;;4990130;28;20033;-72
2021/01/19 04:49:54;;;;;;;3.10;1.65;;;1.70;1.00;;;;;;4996503;28;20070;-72
2021/01/19 04:52:22;;;;;;;6.45;2.03;;;1.80;1.00;;;;;;4993667;28;20022;-73
2021/01/19 04:55:05;;;;;;;3.60;2.28;;;1.70;1.00;;;;;;4992034;28;20030;-73
2021/01/19 04:57:33;;;;;;;2.13;1.85;;;1.80;1.00;;;;;;4989365;28;20062;-73
2021/01/19 05:00:03;;;;;;;5.25;2.28;;;1.90;1.00;;;;;;4996691;28;20035;-73
2021/01/19 05:03:10;;;;;;;3.70;1.60;;;1.80;1.00;;;;;;4988294;28;20022;-72
2021/01/19 05:05:35;;;;;;;2.42;2.22;;;2.00;1.00;;;;;;4966438;28;20047;-71
2021/01/19 05:08:19;;;;;;;3.97;1.80;;;1.90;1.00;;;;;;4988470;28;20338;-73
2021/01/19 05:11:01;;;;;;;4.78;2.75;;;1.90;1.00;;;;;;4999787;28;20030;-73
2021/01/19 05:13:50;;;;;;;3.28;1.85;;;1.80;1.00;;;;;;4994883;28;20433;-72
2021/01/19 05:16:18;;;;;;;4.07;2.10;;;1.80;1.00;;;;;;4992710;28;20050;-71
2021/01/19 05:18:44;;;;;;;2.03;1.77;;;1.80;1.00;;;;;;4996015;28;20027;-71
2021/01/19 05:21:11;;;;;;;4.15;1.67;;;1.80;1.00;;;;;;4993046;28;20033;-72
2021/01/19 05:23:36;;;;;;;5.00;1.85;;;1.80;1.00;;;;;;4993360;28;20450;-72
2021/01/19 05:26:05;;;;;;;3.47;1.90;;;1.80;1.00;;;;;;4982949;28;20066;-73
2021/01/19 05:28:39;;;;;;;5.45;2.03;;;2.00;1.00;;;;;;4991464;28;20030;-72
2021/01/19 05:31:24;;;;;;;5.43;2.40;;;1.90;1.00;;;;;;4993399;28;20033;-72
2021/01/19 05:33:53;;;;;;;3.30;2.20;;;1.80;1.00;;;;;;5001407;28;20034;-72
2021/01/19 05:36:20;;;;;;;4.72;1.85;;;1.80;1.00;;;;;;4994404;28;20038;-72
2021/01/19 05:38:47;;;;;;;3.90;2.10;;;1.80;1.00;;;;;;5005768;28;20097;-71
2021/01/19 05:41:30;;;;;;;3.63;2.53;;;1.70;1.00;;;;;;4998451;28;20382;-73
2021/01/19 05:44:07;;;;;;;4.88;3.83;;;1.70;1.00;;;;;;4997568;28;20121;-72
2021/01/19 05:46:33;;;;;;;5.07;2.55;;;1.70;1.00;;;;;;4995069;28;20084;-71
2021/01/19 05:49:00;;;;;;;5.03;2.28;;;1.70;1.00;;;;;;4991220;28;20498;-73
2021/01/19 05:51:29;;;;;;;5.50;2.47;;;1.60;1.00;;;;;;4984796;28;20453;-72
2021/01/19 05:53:59;;;;;;;6.35;2.60;;;1.60;1.00;;;;;;4993203;28;20030;-72
2021/01/19 05:56:26;;;;;;;4.53;3.10;;;1.60;1.00;;;;;;4989687;28;20062;-72
2021/01/19 05:58:52;;;;;;;3.17;2.35;;;1.60;1.00;;;;;;4992898;28;20027;-72
2021/01/19 06:01:32;;;;;;;3.83;2.53;;;1.60;1.00;;;;;;4986756;28;20479;-73
2021/01/19 06:04:00;;;;;;;4.50;2.10;;;1.60;1.00;;;;;;4989412;28;20023;-72
2021/01/19 06:06:26;;;;;;;2.35;2.15;;;1.60;1.00;;;;;;4988028;28;20026;-73
2021/01/19 06:09:04;;;;;;;4.50;2.38;;;1.60;1.00;;;;;;4988932;28;20517;-72
2021/01/19 06:11:30;;;;;;;2.55;2.13;;;1.50;1.00;;;;;;4985735;28;20069;-72
2021/01/19 06:13:56;;;;;;;7.47;2.72;;;1.50;1.00;;;;;;4989089;28;20054;-72
2021/01/19 06:16:26;;;;;;;4.55;2.85;;;1.50;1.00;;;;;;4981700;28;20089;-72
2021/01/19 06:18:52;;;;;;;5.63;2.63;;;1.50;1.00;;;;;;4985760;28;20034;-72
2021/01/19 06:21:35;;;;;;;3.33;2.45;;;1.50;1.00;;;;;;4988555;28;20027;-72
2021/01/19 06:24:01;;;;;;;5.10;2.60;;;1.50;1.00;;;;;;4995361;28;20162;-72
2021/01/19 06:26:27;;;;;;;6.50;3.70;;;1.50;1.00;;;;;;4988742;28;20030;-72
2021/01/19 06:28:53;;;;;;;5.72;2.47;;;1.50;1.00;;;;;;4983517;28;20037;-72
2021/01/19 06:31:23;;;;;;;5.32;2.45;;;1.50;1.00;;;;;;4982670;28;20034;-72
2021/01/19 06:33:50;;;;;;;3.42;2.10;;;1.50;1.00;;;;;;4993584;28;20128;-74
2021/01/19 06:36:19;;;;;;;4.78;2.47;;;1.50;1.00;;;;;;4982611;28;20023;-71
2021/01/19 06:38:49;;;;;;;3.00;2.22;;;1.50;1.00;;;;;;4980428;28;20035;-73
2021/01/19 06:41:18;;;;;;;4.88;2.83;;;1.50;1.00;;;;;;4989308;28;20026;-73
2021/01/19 06:43:49;;;;;;;4.93;2.22;;;1.50;1.00;;;;;;4993225;28;20038;-72
2021/01/19 06:46:17;;;;;;;3.85;2.80;;;1.50;1.00;;;;;;4991633;28;20022;-72
2021/01/19 06:48:43;;;;;;;4.80;2.60;;;1.50;1.00;;;;;;4990142;28;20033;-72
2021/01/19 06:51:13;;;;;;;6.53;2.38;;;1.40;1.00;;;;;;4984880;28;20398;-73
2021/01/19 06:54:05;;;;;;;3.53;3.17;;;1.50;1.00;;;;;;4982288;28;20094;-73
2021/01/19 06:56:37;;;;;;;3.45;2.92;;;1.50;1.00;;;;;;5000135;28;20026;-73
2021/01/19 06:59:13;;;;;;;4.57;2.50;;;1.40;1.00;;;;;;5000408;28;20026;-72
2021/01/19 07:01:43;;;;;;;2.80;2.50;;;1.40;1.00;;;;;;5001200;28;20505;-73
2021/01/19 07:04:25;;;;;;;2.70;2.20;;;1.30;1.00;;;;;;4991774;28;20121;-71
2021/01/19 07:07:29;;;;;;;2.65;2.05;;;1.30;1.00;;;;;;4982262;28;20085;-72
2021/01/19 07:10:00;;;;;;;4.68;2.50;;;1.40;1.00;;;;;;4991115;28;20118;-72
2021/01/19 07:12:58;;;;;;;4.57;2.22;;;1.30;1.00;;;;;;4984962;28;20023;-72
2021/01/19 07:15:57;;;;;;;5.45;2.70;;;1.30;1.00;;;;;;4986119;28;20065;-72
2021/01/19 07:18:42;;;;;;;4.00;2.50;;;1.30;1.00;;;;;;4990861;28;20026;-72
2021/01/19 07:21:09;;;;;;;5.22;2.78;;;1.20;1.00;;;;;;4985596;28;20101;-72
2021/01/19 07:23:44;;;;;;;4.10;2.53;;;1.20;1.00;;;;;;4986293;28;20030;-73
2021/01/19 07:26:22;;;;;;;5.78;2.95;;;1.20;1.00;;;;;;4985876;28;20034;-72
2021/01/19 07:28:50;;;;;;;3.65;2.15;;;1.20;1.00;;;;;;4975952;28;20911;-72
2021/01/19 07:31:20;;;;;;;4.28;3.40;;;1.30;1.00;;;;;;4986967;28;20402;-73
2021/01/19 07:33:54;;;;;;;4.33;2.70;;;1.30;1.00;;;;;;4993452;28;20030;-72
2021/01/19 07:36:22;;;;;;;4.13;2.72;;;1.40;1.00;;;;;;4979135;28;20062;-72
2021/01/19 07:38:48;;;;;;;3.95;2.55;;;1.40;1.00;;;;;;4988486;28;20027;-72
2021/01/19 07:41:30;;;;;;;5.95;2.92;;;1.50;1.00;;;;;;4985240;28;20031;-71
2021/01/19 07:43:56;;;;;;;6.57;3.45;;;1.40;1.00;;;;;;4987121;28;20030;-72
2021/01/19 07:46:27;;;;;;;4.53;3.28;;;1.40;1.00;;;;;;4982078;28;20041;-74
2021/01/19 07:49:03;;;;;;;8.50;3.10;;;1.40;1.00;;;;;;4988208;28;20022;-74
2021/01/19 07:51:43;;;;;;;5.13;3.10;;;1.40;1.00;;;;;;4980426;28;20030;-73
2021/01/19 07:54:10;;;;;;;5.55;3.40;;;1.50;1.00;;;;;;4993783;28;20033;-72
2021/01/19 07:56:36;;;;;;;4.68;3.00;;;1.50;1.00;;;;;;4991229;28;20034;-73
2021/01/19 07:59:02;;;;;;;6.47;3.00;;;1.50;1.00;;;;;;4996851;28;20041;-73
2021/01/19 08:01:34;;;;;;;6.88;3.38;;;1.60;1.00;;;;;;4991470;28;20023;-73
2021/01/19 08:04:10;;;;;;;5.30;2.67;;;1.60;1.00;;;;;;4997587;28;20035;-73
2021/01/19 08:06:37;;;;;;;7.32;4.28;;;1.70;1.00;;;;;;4992147;28;20057;-73
2021/01/19 08:09:12;;;;;;;5.95;3.97;;;1.90;99.90;;;;;;4992668;28;20578;-73
2021/01/19 08:11:41;;;;;;;7.75;3.50;;;1.80;99.90;;;;;;4991856;28;20077;-73
2021/01/19 08:14:07;;;;;;;3.28;2.60;;;1.80;1.00;;;;;;4982576;28;20030;-73
2021/01/19 08:16:36;;;;;;;5.57;3.75;;;2.00;99.90;;;;;;4983646;28;20483;-73
2021/01/19 08:19:11;;;;;;;4.72;2.83;;;1.90;99.90;;;;;;4989209;28;20026;-73
2021/01/19 08:21:52;;;;;;;6.07;3.40;;;2.00;99.90;;;;;;4989702;28;20049;-74
2021/01/19 08:24:22;;;;;;;7.97;3.15;;;2.20;99.90;;;;;;4988833;28;20577;-73
2021/01/19 08:26:48;;;;;;;6.80;3.13;;;2.30;99.90;;;;;;4984406;28;20034;-73
2021/01/19 08:29:18;;;;;;;12.25;3.55;;;2.40;99.90;;;;;;4985127;28;20031;-73
2021/01/19 08:31:51;;;;;;;3.92;3.15;;;2.40;99.90;;;;;;4979225;28;20038;-73
2021/01/19 08:34:17;;;;;;;4.70;2.75;;;2.50;99.90;;;;;;4986106;28;20105;-72
2021/01/19 08:36:46;;;;;;;5.97;3.20;;;2.50;99.90;;;;;;4980679;28;20386;-72
2021/01/19 08:39:13;;;;;;;5.28;3.15;;;2.50;99.90;;;;;;4988706;28;20030;-73
2021/01/19 08:41:44;;;;;;;7.63;3.13;;;2.60;99.90;;;;;;4990304;28;20042;-72
2021/01/19 08:44:10;;;;;;;8.73;2.95;;;2.80;99.90;;;;;;4997632;28;20108;-73
2021/01/19 08:46:37;;;;;;;4.57;3.20;;;2.90;99.90;;;;;;4996331;28;20035;-74
2021/01/19 08:49:08;;;;;;;4.97;2.40;;;2.90;99.90;;;;;;4978921;28;20044;-72
2021/01/19 08:51:36;;;;;;;3.20;2.90;;;2.90;99.90;;;;;;4988184;28;20137;-72
2021/01/19 08:54:10;;;;;;;10.73;3.45;;;2.90;99.90;;;;;;4989988;28;20038;-74
2021/01/19 08:56:43;;;;;;;6.18;3.20;;;3.00;99.90;;;;;;4979258;28;20077;-72
2021/01/19 08:59:15;;;;;;;9.27;4.00;;;3.10;99.90;;;;;;4982964;28;20260;-74
2021/01/19 09:01:48;;;;;;;11.52;3.85;;;3.00;99.90;;;;;;4979009;28;20038;-73
2021/01/19 09:04:28;;;;;;;5.45;3.22;;;3.10;99.90;;;;;;4987386;28;20023;-74
2021/01/19 09:07:07;;;;;;;4.63;3.30;;;3.20;99.90;;;;;;4997468;28;20026;-73
2021/01/19 09:09:34;;;;;;;6.40;3.40;;;3.20;90.50;;;;;;4988776;28;20035;-73
2021/01/19 09:11:59;;;;;;;7.32;3.85;;;3.10;99.90;;;;;;4983847;28;20030;-73
2021/01/19 09:14:26;;;;;;;4.90;3.15;;;3.10;99.90;;;;;;4982592;28;20082;-73
2021/01/19 09:16:53;;;;;;;5.75;3.28;;;3.10;99.90;;;;;;4988969;28;20372;-72
2021/01/19 09:19:19;;;;;;;6.45;3.13;;;3.00;99.90;;;;;;4990023;28;20030;-72
2021/01/19 09:21:45;;;;;;;6.97;4.25;;;3.00;99.90;;;;;;4985744;28;20034;-73
2021/01/19 09:24:15;;;;;;;5.95;3.58;;;3.10;99.90;;;;;;4994368;28;20033;-74
2021/01/19 09:26:56;;;;;;;9.50;3.73;;;3.20;99.90;;;;;;4998689;28;20027;-73
2021/01/19 09:29:23;;;;;;;5.40;3.10;;;3.20;99.90;;;;;;5004003;28;20030;-72
2021/01/19 09:31:49;;;;;;;3.90;3.33;;;3.10;99.90;;;;;;4989656;28;20498;-73
2021/01/19 09:34:19;;;;;;;4.90;3.83;;;3.10;99.90;;;;;;4994191;28;20222;-72
2021/01/19 09:36:46;;;;;;;10.90;4.38;;;3.10;99.90;;;;;;4990455;28;20037;-73
2021/01/19 09:39:12;;;;;;;4.88;3.28;;;3.10;99.90;;;;;;4988006;28;20030;-73
2021/01/19 09:41:42;;;;;;;12.93;4.65;;;3.20;99.90;;;;;;4998183;28;20026;-72
2021/01/19 09:44:11;;;;;;;7.43;3.40;;;3.10;99.90;;;;;;4986657;28;20034;-74
2021/01/19 09:46:38;;;;;;;3.88;2.65;;;3.10;99.90;;;;;;4983991;28;20034;-73
2021/01/19 09:49:03;;;;;;;8.85;4.93;;;3.10;99.90;;;;;;4982352;28;20085;-72
2021/01/19 09:51:29;;;;;;;8.50;2.95;;;3.10;99.90;;;;;;4994161;28;20077;-72
2021/01/19 09:53:56;;;;;;;7.95;3.30;;;3.20;99.90;;;;;;4996253;28;20042;-73
2021/01/19 09:56:22;;;;;;;6.07;2.75;;;3.20;99.90;;;;;;4989962;28;20110;-72
2021/01/19 09:58:48;;;;;;;6.00;3.55;;;3.30;99.90;;;;;;4992815;28;20030;-72
2021/01/19 10:01:24;;;;;;;4.30;2.85;;;3.30;99.90;;;;;;4991290;28;20026;-74
2021/01/19 10:03:49;;;;;;;4.18;3.05;;;3.60;99.90;;;;;;4987839;28;20073;-73
2021/01/19 10:06:20;;;;;;;6.45;3.38;;;3.60;99.90;;;;;;4986975;28;20038;-72
2021/01/19 10:08:50;;;;;;;9.88;3.45;;;3.50;99.90;;;;;;4989656;28;20093;-72
2021/01/19 10:11:30;;;;;;;5.60;2.92;;;3.50;99.90;;;;;;4991435;28;20034;-73
2021/01/19 10:13:56;;;;;;;5.70;3.87;;;3.50;99.90;;;;;;4990252;28;20032;-73
2021/01/19 10:16:29;;;;;;;4.10;2.90;;;3.60;99.90;;;;;;4987986;28;20101;-76
2021/01/19 10:18:54;;;;;;;8.75;3.25;;;3.60;99.90;;;;;;4978379;28;20030;-73
2021/01/19 10:21:31;;;;;;;5.18;2.92;;;3.70;99.90;;;;;;4992174;28;20023;-73
2021/01/19 10:23:57;;;;;;;10.05;2.90;;;3.70;99.90;;;;;;4993249;28;20034;-72
2021/01/19 10:26:29;;;;;;;9.20;3.25;;;3.70;99.90;;;;;;4979256;28;20098;-72
2021/01/19 10:28:58;;;;;;;5.78;3.33;;;3.60;99.90;;;;;;5005862;28;20054;-74
2021/01/19 10:31:27;;;;;;;7.35;3.35;;;3.70;99.90;;;;;;4992660;28;20066;-75
2021/01/19 10:34:02;;;;;;;3.30;2.78;;;3.60;99.90;;;;;;4989716;28;20019;-72
2021/01/19 10:36:37;;;;;;;5.28;3.17;;;3.70;99.90;;;;;;4994182;28;20598;-74
2021/01/19 10:39:09;;;;;;;9.90;3.15;;;3.70;99.90;;;;;;4992679;28;20085;-72
2021/01/19 10:41:36;;;;;;;5.25;3.75;;;3.70;99.90;;;;;;4977621;28;20027;-73
2021/01/19 10:44:02;;;;;;;6.63;3.75;;;3.80;99.90;;;;;;4988908;28;20023;-74
2021/01/19 10:46:31;;;;;;;12.02;5.10;;;3.70;99.90;;;;;;4980342;28;20034;-75
2021/01/19 10:49:27;;;;;;;7.38;2.78;;;3.80;99.90;;;;;;4992472;28;20036;-73
2021/01/19 10:51:52;;;;;;;5.00;2.85;;;3.80;99.90;;;;;;4968038;28;20043;-73
2021/01/19 10:54:21;;;;;;;5.15;3.03;;;3.80;99.90;;;;;;4979267;28;20026;-73
2021/01/19 10:56:59;;;;;;;7.72;3.55;;;3.80;99.90;;;;;;4984882;28;20030;-75
2021/01/19 10:59:24;;;;;;;10.07;3.10;;;4.00;99.90;;;;;;4986772;28;20077;-73
2021/01/19 11:01:50;;;;;;;4.88;3.05;;;4.00;99.90;;;;;;4988756;28;20038;-74
2021/01/19 11:04:16;;;;;;;4.90;3.35;;;4.00;99.90;;;;;;4983168;28;20041;-73
2021/01/19 11:06:41;;;;;;;7.43;2.90;;;4.00;99.90;;;;;;4989529;28;20110;-74
2021/01/19 11:09:07;;;;;;;6.45;3.15;;;4.00;99.90;;;;;;4982678;28;20050;-74
2021/01/19 11:11:37;;;;;;;7.10;3.65;;;4.10;99.90;;;;;;4987422;28;20034;-76
2021/01/19 11:14:05;;;;;;;6.63;3.10;;;4.10;99.90;;;;;;4990930;28;20065;-74
2021/01/19 11:16:39;;;;;;;8.18;3.78;;;4.10;99.90;;;;;;4987008;28;20031;-73
2021/01/19 11:19:10;;;;;;;6.68;3.22;;;4.10;99.90;;;;;;4983663;28;20039;-74
2021/01/19 11:21:37;;;;;;;8.88;5.22;;;4.10;99.90;;;;;;4988654;28;20497;-76
2021/01/19 11:24:04;;;;;;;4.72;3.10;;;4.10;99.90;;;;;;4985197;28;20026;-75
2021/01/19 11:26:32;;;;;;;4.00;3.10;;;4.20;99.90;;;;;;4988513;28;20030;-75
2021/01/19 11:28:58;;;;;;;6.03;2.90;;;4.20;99.90;;;;;;4992158;28;20019;-75
2021/01/19 11:31:28;;;;;;;9.43;3.33;;;4.20;99.90;;;;;;4979136;28;20027;-73
2021/01/19 11:33:55;;;;;;;6.35;2.60;;;4.30;99.90;;;;;;4991072;28;20022;-74
2021/01/19 11:36:26;;;;;;;8.20;3.60;;;4.20;99.90;;;;;;4982166;28;20066;-74
2021/01/19 11:38:53;;;;;;;11.88;3.72;;;4.30;99.90;;;;;;4981596;28;20090;-75
2021/01/19 11:41:21;;;;;;;9.50;3.55;;;4.20;99.90;;;;;;4983108;28;20023;-74
2021/01/19 11:43:47;;;;;;;5.63;2.83;;;4.30;99.90;;;;;;4996707;28;20061;-75
2021/01/19 11:46:19;;;;;;;5.50;3.80;;;4.30;99.90;;;;;;4999426;28;20018;-75
2021/01/19 11:48:44;;;;;;;4.50;3.30;;;4.40;85.40;;;;;;4996354;28;20026;-76
2021/01/19 11:51:15;;;;;;;9.82;4.20;;;4.40;72.40;;;;;;4995504;28;20379;-77
2021/01/19 11:53:40;;;;;;;4.68;2.63;;;4.40;52.70;;;;;;4994262;28;20046;-74
2021/01/19 11:56:06;;;;;;;11.60;4.07;;;4.50;85.40;;;;;;4989575;28;20110;-73
2021/01/19 11:58:31;;;;;;;3.88;2.83;;;4.50;99.90;;;;;;4986082;28;20483;-74
2021/01/19 12:00:57;;;;;;;9.88;3.28;;;4.60;73.50;;;;;;4980802;28;20090;-75
2021/01/19 12:03:23;;;;;;;5.43;2.90;;;4.50;79.50;;;;;;4981222;28;20542;-74
2021/01/19 12:05:48;;;;;;;4.97;2.85;;;4.60;29.40;;;;;;4984559;28;20031;-73
2021/01/19 12:08:14;;;;;;;5.95;2.47;;;4.60;84.00;;;;;;4989707;28;20034;-72
2021/01/19 12:10:44;;;;;;;5.57;2.95;;;4.70;72.20;;;;;;5005165;28;20082;-74
2021/01/19 12:13:12;;;;;;;3.63;2.55;;;4.70;74.80;;;;;;4982855;28;20027;-74
2021/01/19 12:15:39;;;;;;;6.47;2.67;;;4.80;15.50;;;;;;4990862;28;20027;-73
2021/01/19 12:18:04;;;;;;;4.05;2.50;;;4.70;10.30;;;;;;4991230;28;20039;-74
2021/01/19 12:20:30;;;;;;;4.13;2.65;;;4.90;3.60;;;;;;4985352;28;20029;-75
2021/01/19 12:22:55;;;;;;;9.30;3.63;;;5.00;22.10;;;;;;4981845;28;20030;-75
2021/01/19 12:25:21;;;;;;;5.68;2.70;;;5.00;1.00;;;;;;4999917;28;20117;-76
2021/01/19 12:27:50;;;;;;;4.03;2.38;;;5.10;1.00;;;;;;4975045;28;20034;-75
2021/01/19 12:30:16;;;;;;;4.65;2.50;;;5.10;1.00;;;;;;4990850;28;20082;-74
2021/01/19 12:32:41;;;;;;;9.27;3.30;;;5.20;1.00;;;;;;4981140;28;20122;-75
2021/01/19 12:35:08;;;;;;;7.35;2.88;;;5.30;1.00;;;;;;4990317;28;20085;-75
2021/01/19 12:37:33;;;;;;;4.68;2.42;;;5.40;1.00;;;;;;4978010;28;20030;-74
2021/01/19 12:39:59;;;;;;;4.00;2.60;;;5.50;99.90;;;;;;4978815;28;20034;-74
2021/01/19 12:42:24;;;;;;;5.85;3.17;;;5.40;99.90;;;;;;4990990;28;20042;-75
2021/01/19 12:44:50;;;;;;;4.22;2.22;;;5.60;99.90;;;;;;5004875;28;20031;-73
2021/01/19 12:47:16;;;;;;;2.63;2.20;;;5.50;1.00;;;;;;4996318;28;20133;-74
2021/01/19 12:49:41;;;;;;;3.75;3.28;;;5.50;1.00;;;;;;5007131;28;20030;-74
2021/01/19 12:52:09;;;;;;;5.32;2.30;;;5.50;1.00;;;;;;4990327;28;20015;-74
2021/01/19 12:54:34;;;;;;;7.82;2.95;;;5.40;1.00;;;;;;4992706;28;20487;-74
2021/01/19 12:57:00;;;;;;;5.35;3.85;;;5.50;1.00;;;;;;4985323;28;20044;-75
2021/01/19 12:59:26;;;;;;;5.72;3.85;;;5.50;1.00;;;;;;5002370;28;20478;-74
2021/01/19 13:01:52;;;;;;;7.75;3.50;;;5.50;1.00;;;;;;4991591;28;20031;-74
2021/01/19 13:04:17;;;;;;;6.45;3.00;;;5.50;1.00;;;;;;4995344;28;20023;-72
2021/01/19 13:06:49;;;;;;;5.03;2.75;;;5.50;31.30;;;;;;4994759;28;20497;-75
2021/01/19 13:09:15;;;;;;;3.90;2.63;;;5.50;31.50;;;;;;4998658;28;20031;-73
2021/01/19 13:11:40;;;;;;;3.40;2.20;;;5.50;96.00;;;;;;4989970;28;20042;-74
2021/01/19 13:14:06;;;;;;;4.68;2.35;;;5.50;99.90;;;;;;4995889;28;20053;-74